Time;durP1;ratioP1;P1;durP2;ratioP2;P2;SDS_P1;SDS_P2;PMS_P1;PMS_P2;Temp;Humidity;BMP_temperature;BMP_pressure;BME280_temperature;BME280_humidity;BME280_pressure;Samples;Min_cycle;Max_cycle;Signal;HPM_P1;HPM_P2
2023/11/11 03:34:54;;;;;;;5.17;5.00;;;8.50;35.40;;;;;;5127420;23;21023;-77
2023/11/11 03:37:19;;;;;;;4.60;4.40;;;8.60;36.40;;;;;;4977339;28;20434;-77
2023/11/11 03:39:45;;;;;;;4.93;4.83;;;8.80;35.40;;;;;;4975840;28;20186;-77
2023/11/11 03:42:11;;;;;;;5.70;5.40;;;8.80;34.30;;;;;;4975581;28;20187;-78
2023/11/11 03:44:36;;;;;;;5.50;5.30;;;8.70;34.00;;;;;;4975736;28;20461;-78
2023/11/11 03:47:02;;;;;;;5.63;5.43;;;8.80;33.90;;;;;;4975240;28;20672;-78
2023/11/11 03:49:27;;;;;;;5.77;5.57;;;8.70;34.10;;;;;;4975067;28;20203;-78
2023/11/11 03:51:53;;;;;;;5.50;5.30;;;8.70;34.40;;;;;;4976140;28;20192;-78
2023/11/11 03:54:19;;;;;;;5.60;5.40;;;8.70;34.00;;;;;;4974900;28;20190;-78
2023/11/11 03:57:09;;;;;;;5.50;5.30;;;8.70;33.30;;;;;;4976900;28;20199;-77
2023/11/11 03:59:35;;;;;;;5.57;5.43;;;8.60;33.60;;;;;;4977453;28;20221;-77
2023/11/11 04:02:00;;;;;;;5.50;5.40;;;8.50;33.50;;;;;;4978494;28;20418;-77
2023/11/11 04:04:26;;;;;;;5.83;5.60;;;8.50;34.80;;;;;;4976354;28;20265;-78
2023/11/11 04:06:54;;;;;;;5.17;4.97;;;8.50;34.20;;;;;;4976249;28;20534;-78
2023/11/11 04:09:19;;;;;;;5.30;5.10;;;8.40;34.30;;;;;;4974732;28;20715;-78
2023/11/11 04:11:45;;;;;;;4.70;4.60;;;8.40;34.60;;;;;;4975674;28;20457;-77
2023/11/11 04:14:10;;;;;;;4.43;4.33;;;8.40;34.70;;;;;;4976881;28;20209;-78
2023/11/11 04:16:36;;;;;;;5.20;5.00;;;8.40;35.60;;;;;;4976212;28;20882;-78
2023/11/11 04:19:03;;;;;;;4.97;4.77;;;8.40;35.20;;;;;;4976841;28;20286;-77
2023/11/11 04:21:29;;;;;;;4.93;4.73;;;8.50;36.30;;;;;;4976803;28;20566;-78
2023/11/11 04:23:54;;;;;;;5.27;5.07;;;8.50;37.10;;;;;;4976386;28;20428;-77
2023/11/11 04:26:20;;;;;;;5.30;5.20;;;8.40;37.10;;;;;;4976073;28;20191;-78
2023/11/11 04:28:45;;;;;;;4.97;4.87;;;8.30;37.80;;;;;;4976098;28;20556;-77
2023/11/11 04:31:12;;;;;;;5.90;5.70;;;8.30;39.50;;;;;;4976232;28;20684;-78
2023/11/11 04:33:38;;;;;;;5.30;5.10;;;8.20;40.50;;;;;;4975987;28;20186;-78
2023/11/11 04:36:04;;;;;;;4.93;4.77;;;8.20;41.10;;;;;;4977160;28;20516;-78
2023/11/11 04:38:29;;;;;;;4.93;4.73;;;8.10;40.70;;;;;;4976201;28;20660;-78
2023/11/11 04:40:56;;;;;;;5.40;5.10;;;8.10;41.00;;;;;;4976933;28;20274;-78
2023/11/11 04:43:22;;;;;;;4.87;4.67;;;8.10;41.00;;;;;;4976415;28;20175;-78
2023/11/11 04:45:48;;;;;;;4.97;4.80;;;8.10;41.00;;;;;;4976509;28;20471;-78
2023/11/11 04:48:14;;;;;;;4.57;4.47;;;8.30;41.10;;;;;;4975772;28;20525;-77
2023/11/11 04:50:40;;;;;;;5.23;5.03;;;8.30;39.70;;;;;;4975407;28;20668;-78
2023/11/11 04:53:07;;;;;;;5.37;5.17;;;8.40;40.50;;;;;;4976916;28;20490;-78
2023/11/11 04:55:32;;;;;;;5.20;5.10;;;8.40;39.50;;;;;;4975911;28;20434;-78
2023/11/11 04:57:58;;;;;;;5.73;5.43;;;8.30;39.00;;;;;;4976975;28;20444;-77
2023/11/11 05:00:24;;;;;;;5.77;5.40;;;8.40;40.00;;;;;;4984572;28;20214;-77
2023/11/11 05:02:50;;;;;;;5.50;5.27;;;8.50;39.70;;;;;;4983148;28;20695;-77
2023/11/11 05:05:16;;;;;;;5.07;4.87;;;8.70;39.50;;;;;;4975951;28;20462;-77
2023/11/11 05:07:41;;;;;;;6.27;5.77;;;8.90;38.20;;;;;;4975939;28;20199;-78
2023/11/11 05:10:15;;;;;;;6.10;5.90;;;9.00;37.50;;;;;;4975906;28;20218;-78
2023/11/11 05:12:41;;;;;;;6.30;6.00;;;8.80;36.80;;;;;;4975632;28;20186;-78
2023/11/11 05:15:14;;;;;;;6.37;6.07;;;8.60;37.70;;;;;;4975390;28;20425;-78
2023/11/11 05:17:46;;;;;;;6.47;6.27;;;8.60;37.80;;;;;;4974696;28;21012;-76
2023/11/11 05:20:13;;;;;;;6.00;5.70;;;8.50;38.40;;;;;;4975634;28;20441;-77
2023/11/11 05:22:39;;;;;;;6.33;5.90;;;8.40;38.00;;;;;;4974854;28;21023;-80
2023/11/11 05:25:06;;;;;;;5.97;5.77;;;8.30;38.50;;;;;;4976139;28;20496;-79
2023/11/11 05:27:31;;;;;;;5.93;5.70;;;8.30;37.80;;;;;;4976021;28;20457;-78
2023/11/11 05:29:57;;;;;;;6.20;5.90;;;8.30;38.20;;;;;;4975537;28;20414;-78
2023/11/11 05:32:24;;;;;;;6.40;6.10;;;8.30;37.60;;;;;;4976369;28;20206;-78
2023/11/11 05:34:50;;;;;;;5.70;5.50;;;8.20;36.70;;;;;;4975759;28;20442;-78
2023/11/11 05:37:16;;;;;;;6.27;6.00;;;8.20;37.10;;;;;;4975820;28;20923;-77
2023/11/11 05:39:45;;;;;;;6.90;6.50;;;8.30;37.10;;;;;;4974180;28;20441;-78
2023/11/11 05:42:11;;;;;;;6.33;6.03;;;8.30;36.10;;;;;;4975012;28;20206;-77
2023/11/11 05:44:42;;;;;;;6.13;5.93;;;8.30;37.10;;;;;;4975133;28;20866;-78
2023/11/11 05:47:08;;;;;;;5.53;5.33;;;8.30;36.80;;;;;;4974190;28;20432;-78
2023/11/11 05:49:34;;;;;;;5.50;5.30;;;8.20;37.30;;;;;;4975300;28;20456;-78
2023/11/11 05:52:04;;;;;;;6.07;5.77;;;8.30;37.50;;;;;;4974996;28;20434;-78
2023/11/11 05:54:30;;;;;;;6.90;6.47;;;8.30;37.00;;;;;;4975036;28;20229;-78
2023/11/11 05:56:56;;;;;;;5.80;5.60;;;8.30;36.80;;;;;;4975545;28;20434;-78
2023/11/11 05:59:21;;;;;;;6.30;6.10;;;8.30;36.80;;;;;;4976991;28;20820;-78
2023/11/11 06:01:47;;;;;;;5.73;5.53;;;8.20;37.30;;;;;;4975606;28;20195;-76
2023/11/11 06:04:14;;;;;;;6.50;6.30;;;8.20;37.40;;;;;;4977236;28;20195;-78
2023/11/11 06:06:42;;;;;;;6.17;5.97;;;8.20;36.40;;;;;;4977622;28;20488;-78
2023/11/11 06:09:24;;;;;;;6.33;5.93;;;8.20;36.60;;;;;;4974828;28;21038;-78
2023/11/11 06:11:49;;;;;;;6.10;5.77;;;8.30;36.20;;;;;;4977857;28;20430;-77
2023/11/11 06:14:16;;;;;;;5.93;5.63;;;8.20;36.20;;;;;;4977373;28;20801;-77
2023/11/11 06:16:43;;;;;;;6.10;5.70;;;8.20;36.50;;;;;;4977035;28;20444;-78
2023/11/11 06:19:09;;;;;;;5.80;5.60;;;8.20;36.80;;;;;;4977194;28;20529;-77
2023/11/11 06:21:34;;;;;;;6.60;6.27;;;8.30;36.20;;;;;;4975167;28;20850;-77
2023/11/11 06:24:00;;;;;;;6.13;5.93;;;8.40;35.40;;;;;;4969063;28;20183;-77
2023/11/11 06:26:28;;;;;;;5.97;5.67;;;8.40;35.10;;;;;;4979770;28;20191;-78
2023/11/11 06:28:55;;;;;;;6.30;6.10;;;8.40;35.30;;;;;;4979031;28;20533;-77
2023/11/11 06:31:21;;;;;;;6.40;6.10;;;8.40;35.10;;;;;;4978237;28;20521;-78
2023/11/11 06:33:46;;;;;;;6.80;6.50;;;8.40;34.50;;;;;;4979788;28;20438;-77
2023/11/11 06:36:15;;;;;;;11.63;6.60;;;8.40;34.40;;;;;;4979917;28;20780;-77
2023/11/11 06:38:40;;;;;;;5.97;5.77;;;8.30;34.20;;;;;;4978169;28;20289;-78
2023/11/11 06:41:07;;;;;;;6.20;6.00;;;8.20;35.20;;;;;;4979218;28;20485;-78
2023/11/11 06:43:33;;;;;;;6.40;6.20;;;8.20;35.20;;;;;;4975243;28;20198;-78
2023/11/11 06:45:59;;;;;;;6.10;5.80;;;8.20;35.10;;;;;;4972736;28;20475;-78
2023/11/11 06:48:26;;;;;;;6.87;6.67;;;8.20;35.80;;;;;;4973463;28;20478;-78
2023/11/11 06:50:52;;;;;;;6.10;5.90;;;8.20;34.40;;;;;;4978070;28;20414;-78
2023/11/11 06:53:17;;;;;;;6.70;6.40;;;8.20;34.80;;;;;;4976639;28;20528;-78
2023/11/11 06:55:45;;;;;;;6.53;6.23;;;8.20;34.80;;;;;;4983994;28;20453;-77
2023/11/11 06:58:12;;;;;;;7.03;6.73;;;8.20;34.20;;;;;;4989443;28;20206;-77
2023/11/11 07:00:37;;;;;;;7.13;6.60;;;8.30;34.20;;;;;;4989555;28;20430;-78
2023/11/11 07:03:03;;;;;;;6.63;6.33;;;8.50;34.10;;;;;;4990033;28;20444;-76
2023/11/11 07:05:28;;;;;;;6.00;5.80;;;8.40;33.70;;;;;;4988479;28;20221;-77
2023/11/11 07:07:54;;;;;;;6.30;6.07;;;8.40;33.80;;;;;;4987352;28;20457;-77
2023/11/11 07:10:21;;;;;;;6.67;6.27;;;8.40;33.90;;;;;;4982848;28;20191;-78
2023/11/11 07:12:47;;;;;;;6.93;6.63;;;8.40;33.50;;;;;;4976661;28;20193;-77
2023/11/11 07:15:15;;;;;;;5.47;5.27;;;8.50;33.60;;;;;;4975319;28;20437;-76
2023/11/11 07:17:41;;;;;;;5.60;5.40;;;8.60;32.80;;;;;;4975751;28;20462;-76
2023/11/11 07:20:10;;;;;;;6.00;5.70;;;8.50;32.50;;;;;;4974698;28;20445;-78
2023/11/11 07:22:37;;;;;;;6.60;6.30;;;8.50;33.70;;;;;;4973684;28;20426;-77
2023/11/11 07:25:03;;;;;;;6.50;6.20;;;8.40;33.30;;;;;;4973392;28;20535;-75
2023/11/11 07:27:28;;;;;;;5.93;5.63;;;8.50;34.10;;;;;;4972071;28;20584;-77
2023/11/11 07:29:54;;;;;;;6.10;5.90;;;8.60;31.30;;;;;;4973088;28;20505;-76
2023/11/11 07:32:20;;;;;;;5.43;5.23;;;8.60;33.10;;;;;;4972865;28;20175;-76
2023/11/11 07:34:45;;;;;;;6.33;6.03;;;8.70;31.40;;;;;;4967225;28;20226;-77
2023/11/11 07:37:11;;;;;;;6.13;5.93;;;8.70;32.20;;;;;;4962975;28;20574;-76
2023/11/11 07:39:38;;;;;;;5.87;5.67;;;8.60;31.30;;;;;;4961018;28;20180;-76
2023/11/11 07:42:04;;;;;;;5.83;5.63;;;8.60;31.30;;;;;;4953665;29;20451;-76
2023/11/11 07:44:31;;;;;;;5.13;5.03;;;8.60;31.30;;;;;;4954429;29;20898;-77
2023/11/11 07:46:57;;;;;;;5.37;5.17;;;8.50;31.20;;;;;;4969449;28;20427;-76
2023/11/11 07:49:22;;;;;;;5.80;5.60;;;8.60;32.00;;;;;;4968703;28;20443;-75
2023/11/11 07:51:48;;;;;;;6.00;5.80;;;8.50;31.70;;;;;;4957227;28;20205;-76
2023/11/11 07:54:14;;;;;;;5.90;5.70;;;8.50;32.10;;;;;;4973388;28;20191;-76
2023/11/11 07:56:40;;;;;;;5.80;5.60;;;8.50;31.20;;;;;;4974807;28;20514;-76
2023/11/11 07:59:05;;;;;;;6.47;6.20;;;8.40;31.50;;;;;;4974620;28;20202;-76
2023/11/11 08:01:32;;;;;;;5.60;5.40;;;8.40;31.10;;;;;;4974046;28;20277;-77
2023/11/11 08:03:57;;;;;;;5.93;5.50;;;8.30;31.80;;;;;;4975942;28;20537;-77
2023/11/11 08:06:26;;;;;;;6.10;5.80;;;8.30;31.90;;;;;;4976058;28;20469;-79
2023/11/11 08:08:53;;;;;;;6.13;5.83;;;8.30;31.50;;;;;;4975771;28;20197;-74
2023/11/11 08:11:19;;;;;;;5.90;5.70;;;8.40;32.90;;;;;;4975671;28;20542;-76
2023/11/11 08:13:45;;;;;;;5.70;5.40;;;8.40;32.10;;;;;;4975984;28;20441;-76
2023/11/11 08:16:11;;;;;;;6.20;5.90;;;8.50;31.60;;;;;;4974643;28;20430;-75
2023/11/11 08:18:37;;;;;;;5.30;5.10;;;8.50;31.20;;;;;;4975889;28;20613;-77
2023/11/11 08:21:03;;;;;;;6.23;5.90;;;8.60;30.90;;;;;;4975627;28;20414;-77
2023/11/11 08:23:31;;;;;;;6.10;5.80;;;8.60;31.20;;;;;;4975550;28;20928;-76
2023/11/11 08:25:58;;;;;;;7.40;7.00;;;8.60;30.60;;;;;;4974160;28;21047;-77
2023/11/11 08:28:23;;;;;;;6.80;6.60;;;8.60;31.30;;;;;;4974282;28;20474;-77
2023/11/11 08:30:49;;;;;;;6.97;6.70;;;8.60;31.00;;;;;;4975455;28;20179;-76
2023/11/11 08:33:17;;;;;;;6.40;6.13;;;8.70;30.80;;;;;;4974263;28;20302;-76
2023/11/11 08:35:43;;;;;;;6.67;6.40;;;8.80;30.20;;;;;;4974131;28;20539;-76
2023/11/11 08:38:09;;;;;;;6.50;6.20;;;8.80;30.40;;;;;;4975261;28;21003;-76
2023/11/11 08:40:34;;;;;;;6.00;5.80;;;8.80;30.80;;;;;;4975221;28;20171;-77
2023/11/11 08:43:00;;;;;;;6.80;6.60;;;8.80;30.60;;;;;;4975306;28;20545;-76
2023/11/11 08:45:25;;;;;;;6.27;6.00;;;8.70;29.70;;;;;;4975305;28;20636;-76
2023/11/11 08:47:51;;;;;;;6.60;6.30;;;8.90;29.30;;;;;;4975543;28;20202;-77
2023/11/11 08:50:16;;;;;;;6.10;5.80;;;8.80;29.90;;;;;;4974180;28;20198;-77
2023/11/11 08:52:42;;;;;;;6.07;5.77;;;8.80;28.70;;;;;;4974702;28;20182;-78
2023/11/11 08:55:09;;;;;;;6.10;5.73;;;8.80;29.60;;;;;;4976444;28;20187;-77
2023/11/11 08:57:36;;;;;;;5.83;5.43;;;8.80;28.90;;;;;;4976897;28;20735;-77
2023/11/11 09:00:08;;;;;;;5.80;5.50;;;8.90;28.90;;;;;;4977782;28;20501;-78
2023/11/11 09:02:34;;;;;;;6.33;6.03;;;8.90;29.00;;;;;;4977678;28;20405;-78
2023/11/11 09:05:00;;;;;;;6.30;6.00;;;8.90;27.90;;;;;;4977436;28;20462;-76
2023/11/11 09:07:25;;;;;;;6.67;6.17;;;8.90;28.50;;;;;;4976363;28;20757;-77
2023/11/11 09:09:51;;;;;;;5.87;5.57;;;9.00;27.90;;;;;;4974855;28;20575;-78
2023/11/11 09:12:16;;;;;;;6.00;5.70;;;9.00;27.80;;;;;;4975552;28;20693;-77
2023/11/11 09:14:42;;;;;;;5.97;5.57;;;9.00;27.00;;;;;;4975212;28;20182;-77
2023/11/11 09:17:08;;;;;;;5.97;5.67;;;8.90;27.30;;;;;;4975596;28;20233;-77
2023/11/11 09:19:33;;;;;;;6.30;6.10;;;8.80;27.90;;;;;;4975586;28;20194;-77
2023/11/11 09:21:59;;;;;;;6.13;5.83;;;8.80;27.70;;;;;;4975905;28;20179;-76
2023/11/11 09:24:24;;;;;;;6.17;5.93;;;8.80;27.30;;;;;;4975922;28;20609;-78
2023/11/11 09:26:50;;;;;;;6.67;6.37;;;8.80;26.30;;;;;;4973735;28;20183;-77
2023/11/11 09:29:17;;;;;;;5.90;5.70;;;9.00;26.40;;;;;;4974959;28;20246;-78
2023/11/11 09:31:43;;;;;;;6.10;5.90;;;9.10;26.30;;;;;;4977615;28;20175;-78
2023/11/11 09:34:12;;;;;;;6.53;6.20;;;9.00;26.40;;;;;;4979741;28;20796;-78
2023/11/11 09:36:39;;;;;;;7.33;7.10;;;9.10;26.50;;;;;;4978861;28;20410;-78
2023/11/11 09:39:08;;;;;;;6.90;6.60;;;9.10;27.10;;;;;;4976850;28;20461;-78
2023/11/11 09:41:34;;;;;;;6.00;5.70;;;9.20;26.20;;;;;;4978035;28;20410;-78
2023/11/11 09:44:00;;;;;;;6.33;6.03;;;9.20;26.00;;;;;;4976858;28;20510;-78
2023/11/11 09:46:32;;;;;;;6.50;6.10;;;9.20;25.40;;;;;;4977043;28;20458;-78
2023/11/11 09:48:58;;;;;;;6.13;5.93;;;9.00;25.10;;;;;;4978219;28;20326;-78
2023/11/11 09:51:26;;;;;;;6.40;6.10;;;9.10;25.40;;;;;;4977852;28;20420;-77
2023/11/11 09:53:54;;;;;;;5.87;5.63;;;9.20;25.00;;;;;;4975494;28;20422;-78
2023/11/11 09:56:21;;;;;;;6.03;5.73;;;9.20;24.50;;;;;;4974400;28;20414;-77
2023/11/11 09:58:49;;;;;;;5.83;5.53;;;9.30;23.90;;;;;;4976042;28;20437;-77
2023/11/11 10:01:15;;;;;;;6.17;5.87;;;9.30;23.50;;;;;;4976905;28;20418;-76
2023/11/11 10:03:40;;;;;;;6.67;6.17;;;9.40;23.50;;;;;;4966682;28;20410;-77
2023/11/11 10:06:07;;;;;;;5.77;5.47;;;9.50;23.10;;;;;;4959363;29;20462;-78
2023/11/11 10:08:33;;;;;;;6.00;5.80;;;9.40;22.80;;;;;;4955503;29;20191;-77
2023/11/11 10:10:59;;;;;;;5.77;5.40;;;9.50;22.30;;;;;;4955785;29;20471;-79
2023/11/11 10:13:26;;;;;;;5.50;5.23;;;9.70;23.50;;;;;;4958014;29;20414;-79
2023/11/11 10:16:13;;;;;;;6.03;5.73;;;9.60;22.20;;;;;;4956363;28;20470;-79
2023/11/11 10:18:40;;;;;;;6.27;5.77;;;9.60;22.20;;;;;;4956127;29;20454;-79
2023/11/11 10:21:10;;;;;;;6.00;5.70;;;9.60;22.30;;;;;;4956904;29;20554;-79
2023/11/11 10:23:36;;;;;;;5.27;5.07;;;9.70;22.60;;;;;;4956698;29;20787;-78
2023/11/11 10:26:03;;;;;;;6.30;6.00;;;9.80;22.00;;;;;;4956224;29;20470;-79
2023/11/11 10:28:30;;;;;;;5.50;5.20;;;10.00;21.80;;;;;;4956457;29;20490;-77
2023/11/11 10:31:08;;;;;;;5.97;5.73;;;9.70;22.90;;;;;;4961181;29;20902;-78
2023/11/11 10:33:36;;;;;;;6.50;6.30;;;9.80;22.90;;;;;;4959996;29;20959;-77
2023/11/11 10:36:02;;;;;;;5.30;5.10;;;10.00;21.20;;;;;;4955656;29;20415;-78
2023/11/11 10:38:28;;;;;;;5.90;5.60;;;10.00;21.40;;;;;;4960562;28;20780;-77
2023/11/11 10:40:53;;;;;;;5.73;5.40;;;9.90;22.40;;;;;;4965044;28;20178;-78
2023/11/11 10:43:19;;;;;;;6.17;5.80;;;9.80;22.70;;;;;;4961668;28;20183;-77
2023/11/11 10:45:48;;;;;;;6.80;6.40;;;9.70;22.60;;;;;;4963915;28;20724;-77
2023/11/11 10:48:14;;;;;;;5.90;5.60;;;9.90;22.00;;;;;;4956110;28;20446;-77
2023/11/11 10:50:42;;;;;;;7.83;7.37;;;9.90;22.00;;;;;;4953991;29;20416;-78
2023/11/11 10:53:09;;;;;;;7.40;7.00;;;9.90;22.00;;;;;;4954434;29;20415;-77
2023/11/11 10:55:37;;;;;;;5.93;5.60;;;10.00;20.80;;;;;;4957037;28;20443;-77
2023/11/11 10:58:05;;;;;;;6.70;6.40;;;9.80;21.50;;;;;;4958865;28;20935;-76
2023/11/11 11:00:31;;;;;;;6.70;6.40;;;10.00;20.60;;;;;;4972057;28;20422;-78
2023/11/11 11:02:57;;;;;;;6.13;5.83;;;10.10;20.80;;;;;;4974169;28;20952;-78
2023/11/11 11:05:40;;;;;;;6.20;5.90;;;10.20;20.10;;;;;;4972900;28;20248;-77
2023/11/11 11:08:15;;;;;;;6.30;6.00;;;10.20;19.10;;;;;;4970229;28;20900;-77
2023/11/11 11:11:16;;;;;;;5.70;5.40;;;10.20;18.60;;;;;;4963862;28;20421;-77
2023/11/11 11:13:45;;;;;;;6.13;5.93;;;10.00;19.10;;;;;;4964597;28;20437;-77
2023/11/11 11:16:26;;;;;;;6.13;5.67;;;10.10;19.20;;;;;;4963809;28;20794;-77
